sensor_id;sensor_type;location;lat;lon;timestamp;pressure;altitude;pressure_sealevel;temperature;humidity
38452;BME280;24231;52.514;13.438;2023-04-23T00:02:20;100255.06;;;14.85;39.44
38452;BME280;24231;52.514;13.438;2023-04-23T00:04:50;100247.53;;;15.17;38.89
38452;BME280;24231;52.514;13.438;2023-04-23T00:07:19;100246.20;;;15.31;38.73
38452;BME280;24231;52.514;13.438;2023-04-23T00:09:46;100245.51;;;15.17;39.05
38452;BME280;24231;52.514;13.438;2023-04-23T00:12:16;100248.90;;;15.00;39.36
38452;BME280;24231;52.514;13.438;2023-04-23T00:14:43;100242.74;;;15.13;39.16
38452;BME280;24231;52.514;13.438;2023-04-23T00:17:10;100242.36;;;15.34;38.82
38452;BME280;24231;52.514;13.438;2023-04-23T00:19:47;100239.48;;;14.94;39.37
38452;BME280;24231;52.514;13.438;2023-04-23T00:22:14;100237.66;;;15.08;39.18
38452;BME280;24231;52.514;13.438;2023-04-23T00:24:42;100235.66;;;14.94;39.17
38452;BME280;24231;52.514;13.438;2023-04-23T00:27:09;100230.92;;;15.57;38.51
38452;BME280;24231;52.514;13.438;2023-04-23T00:29:36;100236.47;;;15.20;39.32
38452;BME280;24231;52.514;13.438;2023-04-23T00:32:03;100235.98;;;15.10;39.51
38452;BME280;24231;52.514;13.438;2023-04-23T00:34:31;100235.35;;;14.54;40.98
38452;BME280;24231;52.514;13.438;2023-04-23T00:36:58;100228.56;;;15.24;39.87
38452;BME280;24231;52.514;13.438;2023-04-23T00:39:25;100230.43;;;15.00;40.29
38452;BME280;24231;52.514;13.438;2023-04-23T00:41:52;100231.05;;;14.86;40.21
38452;BME280;24231;52.514;13.438;2023-04-23T00:44:20;100228.69;;;14.70;40.64
38452;BME280;24231;52.514;13.438;2023-04-23T00:46:47;100226.04;;;14.77;40.83
38452;BME280;24231;52.514;13.438;2023-04-23T00:49:14;100223.72;;;14.78;40.66
38452;BME280;24231;52.514;13.438;2023-04-23T00:51:42;100222.54;;;14.56;41.30
38452;BME280;24231;52.514;13.438;2023-04-23T00:54:08;100219.58;;;14.67;40.82
38452;BME280;24231;52.514;13.438;2023-04-23T00:56:36;100214.69;;;15.00;40.28
38452;BME280;24231;52.514;13.438;2023-04-23T00:59:03;100215.86;;;14.81;41.07
38452;BME280;24231;52.514;13.438;2023-04-23T01:01:29;100216.18;;;14.62;41.08
38452;BME280;24231;52.514;13.438;2023-04-23T01:03:57;100212.45;;;14.98;40.83
38452;BME280;24231;52.514;13.438;2023-04-23T01:06:25;100207.85;;;14.92;40.61
38452;BME280;24231;52.514;13.438;2023-04-23T01:08:53;100207.57;;;15.23;39.98
38452;BME280;24231;52.514;13.438;2023-04-23T01:11:20;100205.71;;;14.98;40.59
38452;BME280;24231;52.514;13.438;2023-04-23T01:13:47;100204.69;;;15.05;40.54
38452;BME280;24231;52.514;13.438;2023-04-23T01:16:15;100202.89;;;15.46;39.88
38452;BME280;24231;52.514;13.438;2023-04-23T01:18:41;100208.77;;;15.76;39.34
38452;BME280;24231;52.514;13.438;2023-04-23T01:21:10;100204.97;;;15.24;40.37
38452;BME280;24231;52.514;13.438;2023-04-23T01:23:37;100208.43;;;15.35;40.11
38452;BME280;24231;52.514;13.438;2023-04-23T01:26:04;100213.95;;;14.73;41.24
38452;BME280;24231;52.514;13.438;2023-04-23T01:28:32;100208.38;;;14.90;41.16
38452;BME280;24231;52.514;13.438;2023-04-23T01:31:00;100207.91;;;14.94;41.10
38452;BME280;24231;52.514;13.438;2023-04-23T01:33:28;100205.66;;;15.56;40.05
38452;BME280;24231;52.514;13.438;2023-04-23T01:35:56;100203.52;;;15.22;40.39
38452;BME280;24231;52.514;13.438;2023-04-23T01:38:24;100204.49;;;15.47;40.35
38452;BME280;24231;52.514;13.438;2023-04-23T01:40:54;100203.95;;;15.47;40.34
38452;BME280;24231;52.514;13.438;2023-04-23T01:43:21;100208.31;;;14.72;41.54
38452;BME280;24231;52.514;13.438;2023-04-23T01:45:48;100208.84;;;14.70;41.96
38452;BME280;24231;52.514;13.438;2023-04-23T01:48:16;100203.85;;;15.56;40.38
38452;BME280;24231;52.514;13.438;2023-04-23T01:50:43;100203.67;;;15.67;39.58
38452;BME280;24231;52.514;13.438;2023-04-23T01:53:11;100201.81;;;16.03;39.11
38452;BME280;24231;52.514;13.438;2023-04-23T01:55:39;100201.99;;;15.69;39.85
38452;BME280;24231;52.514;13.438;2023-04-23T01:58:06;100196.50;;;16.79;37.92
38452;BME280;24231;52.514;13.438;2023-04-23T02:00:33;100199.21;;;17.24;37.09
38452;BME280;24231;52.514;13.438;2023-04-23T02:03:01;100192.03;;;18.09;35.94
38452;BME280;24231;52.514;13.438;2023-04-23T02:05:29;100189.78;;;18.36;35.92
38452;BME280;24231;52.514;13.438;2023-04-23T02:07:56;100183.29;;;18.80;35.10
38452;BME280;24231;52.514;13.438;2023-04-23T02:10:23;100180.40;;;18.86;35.17
38452;BME280;24231;52.514;13.438;2023-04-23T02:12:50;100188.59;;;18.74;35.54
38452;BME280;24231;52.514;13.438;2023-04-23T02:15:17;100184.11;;;18.69;36.12
38452;BME280;24231;52.514;13.438;2023-04-23T02:17:44;100189.65;;;17.15;39.48
38452;BME280;24231;52.514;13.438;2023-04-23T02:20:11;100192.15;;;15.79;44.45
38452;BME280;24231;52.514;13.438;2023-04-23T02:22:40;100191.98;;;16.33;46.36
38452;BME280;24231;52.514;13.438;2023-04-23T02:25:08;100187.65;;;15.71;47.63
38452;BME280;24231;52.514;13.438;2023-04-23T02:27:35;100179.32;;;16.95;45.55
38452;BME280;24231;52.514;13.438;2023-04-23T02:30:04;100178.35;;;17.85;43.51
38452;BME280;24231;52.514;13.438;2023-04-23T02:32:31;100183.01;;;17.74;43.96
38452;BME280;24231;52.514;13.438;2023-04-23T02:34:58;100187.46;;;17.23;44.66
38452;BME280;24231;52.514;13.438;2023-04-23T02:37:25;100193.99;;;15.11;49.34
38452;BME280;24231;52.514;13.438;2023-04-23T02:39:52;100193.53;;;16.17;49.14
38452;BME280;24231;52.514;13.438;2023-04-23T02:42:19;100191.84;;;17.50;46.88
38452;BME280;24231;52.514;13.438;2023-04-23T02:44:46;100190.57;;;16.90;48.01
38452;BME280;24231;52.514;13.438;2023-04-23T02:47:13;100186.58;;;16.87;47.92
38452;BME280;24231;52.514;13.438;2023-04-23T02:49:40;100182.74;;;17.57;47.63
38452;BME280;24231;52.514;13.438;2023-04-23T02:52:08;100183.92;;;16.38;49.43
38452;BME280;24231;52.514;13.438;2023-04-23T02:54:35;100177.58;;;16.53;50.24
38452;BME280;24231;52.514;13.438;2023-04-23T02:57:02;100176.41;;;16.43;52.06
38452;BME280;24231;52.514;13.438;2023-04-23T02:59:30;100175.32;;;15.59;55.93
38452;BME280;24231;52.514;13.438;2023-04-23T03:01:57;100173.79;;;15.96;54.56
38452;BME280;24231;52.514;13.438;2023-04-23T03:04:24;100171.63;;;16.59;53.59
38452;BME280;24231;52.514;13.438;2023-04-23T03:06:51;100168.52;;;16.94;53.92
38452;BME280;24231;52.514;13.438;2023-04-23T03:09:18;100165.24;;;16.76;53.39
38452;BME280;24231;52.514;13.438;2023-04-23T03:11:46;100164.91;;;16.84;53.82
38452;BME280;24231;52.514;13.438;2023-04-23T03:14:13;100160.66;;;17.55;51.44
38452;BME280;24231;52.514;13.438;2023-04-23T03:16:40;100164.67;;;17.57;50.77
38452;BME280;24231;52.514;13.438;2023-04-23T03:19:07;100165.55;;;17.98;50.19
38452;BME280;24231;52.514;13.438;2023-04-23T03:21:35;100166.49;;;18.04;49.95
38452;BME280;24231;52.514;13.438;2023-04-23T03:24:02;100168.95;;;17.29;51.59
38452;BME280;24231;52.514;13.438;2023-04-23T03:26:29;100170.40;;;18.15;49.28
38452;BME280;24231;52.514;13.438;2023-04-23T03:28:56;100175.32;;;17.32;51.04
38452;BME280;24231;52.514;13.438;2023-04-23T03:31:23;100180.87;;;14.84;58.90
38452;BME280;24231;52.514;13.438;2023-04-23T03:33:50;100181.91;;;14.42;61.26
38452;BME280;24231;52.514;13.438;2023-04-23T03:36:17;100176.96;;;15.90;58.28
38452;BME280;24231;52.514;13.438;2023-04-23T03:38:45;100171.53;;;16.08;56.46
38452;BME280;24231;52.514;13.438;2023-04-23T03:41:12;100166.87;;;15.28;58.02
38452;BME280;24231;52.514;13.438;2023-04-23T03:43:39;100166.62;;;15.12;58.83
38452;BME280;24231;52.514;13.438;2023-04-23T03:46:07;100163.46;;;16.80;54.01
38452;BME280;24231;52.514;13.438;2023-04-23T03:48:34;100158.34;;;17.98;51.34
38452;BME280;24231;52.514;13.438;2023-04-23T03:51:01;100157.44;;;18.08;50.58
38452;BME280;24231;52.514;13.438;2023-04-23T03:53:28;100157.58;;;17.99;50.68
38452;BME280;24231;52.514;13.438;2023-04-23T03:55:56;100157.06;;;18.60;49.65
38452;BME280;24231;52.514;13.438;2023-04-23T03:58:23;100149.18;;;18.74;49.43
38452;BME280;24231;52.514;13.438;2023-04-23T04:00:50;100145.61;;;18.77;49.41
38452;BME280;24231;52.514;13.438;2023-04-23T04:03:17;100144.84;;;18.73;49.58
38452;BME280;24231;52.514;13.438;2023-04-23T04:05:44;100145.00;;;18.56;50.03
38452;BME280;24231;52.514;13.438;2023-04-23T04:08:11;100139.07;;;18.93;49.50
38452;BME280;24231;52.514;13.438;2023-04-23T04:10:38;100143.35;;;16.32;55.40
38452;BME280;24231;52.514;13.438;2023-04-23T04:13:05;100135.39;;;18.08;51.87
38452;BME280;24231;52.514;13.438;2023-04-23T04:15:32;100141.24;;;18.69;50.63
38452;BME280;24231;52.514;13.438;2023-04-23T04:17:59;100142.98;;;17.44;53.12
38452;BME280;24231;52.514;13.438;2023-04-23T04:20:26;100141.80;;;18.00;52.87
38452;BME280;24231;52.514;13.438;2023-04-23T04:22:54;100140.41;;;18.45;51.66
38452;BME280;24231;52.514;13.438;2023-04-23T04:25:21;100140.34;;;17.31;53.54
38452;BME280;24231;52.514;13.438;2023-04-23T04:27:48;100141.68;;;17.26;54.25
38452;BME280;24231;52.514;13.438;2023-04-23T04:30:16;100142.95;;;17.19;54.81
38452;BME280;24231;52.514;13.438;2023-04-23T04:32:49;100151.85;;;15.45;59.81
38452;BME280;24231;52.514;13.438;2023-04-23T04:35:16;100153.31;;;16.17;57.21
38452;BME280;24231;52.514;13.438;2023-04-23T04:37:45;100148.41;;;16.88;56.55
38452;BME280;24231;52.514;13.438;2023-04-23T04:40:12;100154.17;;;17.32;54.25
38452;BME280;24231;52.514;13.438;2023-04-23T04:42:39;100164.79;;;16.53;55.81
38452;BME280;24231;52.514;13.438;2023-04-23T04:45:07;100170.76;;;15.74;58.40
38452;BME280;24231;52.514;13.438;2023-04-23T04:47:34;100168.57;;;14.83;62.46
38452;BME280;24231;52.514;13.438;2023-04-23T04:50:01;100168.95;;;15.39;61.64
38452;BME280;24231;52.514;13.438;2023-04-23T04:52:29;100170.92;;;15.88;60.59
38452;BME280;24231;52.514;13.438;2023-04-23T04:54:56;100161.26;;;17.04;57.07
38452;BME280;24231;52.514;13.438;2023-04-23T04:57:23;100160.02;;;17.72;55.50
38452;BME280;24231;52.514;13.438;2023-04-23T04:59:50;100163.66;;;16.59;57.37
38452;BME280;24231;52.514;13.438;2023-04-23T05:02:17;100160.01;;;17.66;54.39
38452;BME280;24231;52.514;13.438;2023-04-23T05:04:44;100165.72;;;17.29;54.98
38452;BME280;24231;52.514;13.438;2023-04-23T05:07:11;100172.07;;;18.61;51.38
38452;BME280;24231;52.514;13.438;2023-04-23T05:09:39;100174.59;;;18.62;51.84
38452;BME280;24231;52.514;13.438;2023-04-23T05:12:06;100175.50;;;17.87;53.92
38452;BME280;24231;52.514;13.438;2023-04-23T05:14:34;100174.64;;;17.57;54.15
38452;BME280;24231;52.514;13.438;2023-04-23T05:17:01;100168.91;;;19.40;50.14
38452;BME280;24231;52.514;13.438;2023-04-23T05:19:28;100171.36;;;17.06;55.19
38452;BME280;24231;52.514;13.438;2023-04-23T05:21:55;100169.75;;;19.28;50.41
38452;BME280;24231;52.514;13.438;2023-04-23T05:24:23;100168.88;;;19.17;49.88
38452;BME280;24231;52.514;13.438;2023-04-23T05:26:50;100173.10;;;19.78;49.09
38452;BME280;24231;52.514;13.438;2023-04-23T05:29:18;100170.65;;;20.31;47.74
38452;BME280;24231;52.514;13.438;2023-04-23T05:31:45;100171.88;;;19.63;49.06
38452;BME280;24231;52.514;13.438;2023-04-23T05:34:12;100167.40;;;19.54;49.65
38452;BME280;24231;52.514;13.438;2023-04-23T05:36:39;100170.58;;;20.17;47.89
38452;BME280;24231;52.514;13.438;2023-04-23T05:39:07;100173.28;;;20.36;48.45
38452;BME280;24231;52.514;13.438;2023-04-23T05:41:34;100176.31;;;18.63;52.13
38452;BME280;24231;52.514;13.438;2023-04-23T05:44:02;100184.06;;;18.86;51.90
38452;BME280;24231;52.514;13.438;2023-04-23T05:46:29;100185.85;;;18.98;51.75
38452;BME280;24231;52.514;13.438;2023-04-23T05:48:56;100187.45;;;18.14;54.30
38452;BME280;24231;52.514;13.438;2023-04-23T05:51:24;100183.56;;;17.46;56.76
38452;BME280;24231;52.514;13.438;2023-04-23T05:53:51;100181.06;;;19.44;51.50
38452;BME280;24231;52.514;13.438;2023-04-23T05:56:18;100187.75;;;18.22;54.74
38452;BME280;24231;52.514;13.438;2023-04-23T05:58:45;100190.01;;;16.68;59.91
38452;BME280;24231;52.514;13.438;2023-04-23T06:01:13;100187.27;;;17.79;56.90
38452;BME280;24231;52.514;13.438;2023-04-23T06:03:40;100185.44;;;17.65;57.62
38452;BME280;24231;52.514;13.438;2023-04-23T06:06:07;100186.39;;;18.53;54.13
38452;BME280;24231;52.514;13.438;2023-04-23T06:08:33;100185.96;;;18.21;54.55
38452;BME280;24231;52.514;13.438;2023-04-23T06:11:00;100187.94;;;18.54;53.11
38452;BME280;24231;52.514;13.438;2023-04-23T06:13:27;100186.05;;;17.67;56.74
38452;BME280;24231;52.514;13.438;2023-04-23T06:15:54;100187.91;;;18.08;55.27
38452;BME280;24231;52.514;13.438;2023-04-23T06:18:21;100188.21;;;18.56;54.15
38452;BME280;24231;52.514;13.438;2023-04-23T06:20:48;100190.95;;;18.90;52.49
38452;BME280;24231;52.514;13.438;2023-04-23T06:23:15;100189.84;;;17.94;55.16
38452;BME280;24231;52.514;13.438;2023-04-23T06:25:42;100190.08;;;17.91;55.97
38452;BME280;24231;52.514;13.438;2023-04-23T06:28:09;100191.64;;;17.14;58.01
38452;BME280;24231;52.514;13.438;2023-04-23T06:30:36;100186.95;;;17.40;57.16
38452;BME280;24231;52.514;13.438;2023-04-23T06:33:03;100194.44;;;16.66;60.28
38452;BME280;24231;52.514;13.438;2023-04-23T06:35:30;100186.75;;;17.47;59.04
38452;BME280;24231;52.514;13.438;2023-04-23T06:37:57;100196.26;;;16.43;61.95
38452;BME280;24231;52.514;13.438;2023-04-23T06:40:24;100188.16;;;17.52;58.93
38452;BME280;24231;52.514;13.438;2023-04-23T06:42:51;100193.22;;;17.36;58.82
38452;BME280;24231;52.514;13.438;2023-04-23T06:45:19;100199.31;;;16.96;60.58
38452;BME280;24231;52.514;13.438;2023-04-23T06:47:46;100194.47;;;16.96;60.00
38452;BME280;24231;52.514;13.438;2023-04-23T06:50:13;100192.68;;;17.17;59.12
38452;BME280;24231;52.514;13.438;2023-04-23T06:52:40;100192.88;;;16.66;60.43
38452;BME280;24231;52.514;13.438;2023-04-23T06:55:08;100198.13;;;16.79;61.29
38452;BME280;24231;52.514;13.438;2023-04-23T06:57:35;100195.14;;;15.81;64.09
38452;BME280;24231;52.514;13.438;2023-04-23T07:00:02;100191.83;;;17.44;59.20
38452;BME280;24231;52.514;13.438;2023-04-23T07:02:30;100198.69;;;16.97;59.71
38452;BME280;24231;52.514;13.438;2023-04-23T07:04:57;100206.34;;;16.34;62.55
38452;BME280;24231;52.514;13.438;2023-04-23T07:07:24;100210.86;;;16.61;62.79
38452;BME280;24231;52.514;13.438;2023-04-23T07:09:51;100209.66;;;16.15;64.65
38452;BME280;24231;52.514;13.438;2023-04-23T07:12:18;100209.04;;;16.02;65.20
38452;BME280;24231;52.514;13.438;2023-04-23T07:14:45;100207.87;;;16.10;65.44
38452;BME280;24231;52.514;13.438;2023-04-23T07:17:12;100215.48;;;16.54;64.20
38452;BME280;24231;52.514;13.438;2023-04-23T07:19:39;100211.55;;;15.80;67.76
38452;BME280;24231;52.514;13.438;2023-04-23T07:22:06;100213.43;;;15.80;69.54
38452;BME280;24231;52.514;13.438;2023-04-23T07:24:33;100215.15;;;15.81;69.32
38452;BME280;24231;52.514;13.438;2023-04-23T07:27:00;100214.17;;;16.08;69.36
38452;BME280;24231;52.514;13.438;2023-04-23T07:29:28;100216.74;;;16.04;69.00
38452;BME280;24231;52.514;13.438;2023-04-23T07:31:54;100222.61;;;14.91;73.26
38452;BME280;24231;52.514;13.438;2023-04-23T07:34:21;100224.47;;;15.71;71.00
38452;BME280;24231;52.514;13.438;2023-04-23T07:36:50;100227.71;;;15.95;70.46
38452;BME280;24231;52.514;13.438;2023-04-23T07:39:17;100226.69;;;16.14;71.33
38452;BME280;24231;52.514;13.438;2023-04-23T07:41:44;100226.01;;;14.69;75.60
38452;BME280;24231;52.514;13.438;2023-04-23T07:44:11;100228.81;;;16.37;70.59
38452;BME280;24231;52.514;13.438;2023-04-23T07:46:38;100227.17;;;16.54;69.67
38452;BME280;24231;52.514;13.438;2023-04-23T07:49:05;100224.76;;;17.34;66.40
38452;BME280;24231;52.514;13.438;2023-04-23T07:51:32;100227.91;;;17.46;66.16
38452;BME280;24231;52.514;13.438;2023-04-23T07:54:00;100223.24;;;15.46;73.89
38452;BME280;24231;52.514;13.438;2023-04-23T07:56:27;100227.43;;;16.60;69.74
38452;BME280;24231;52.514;13.438;2023-04-23T07:58:54;100228.44;;;17.19;67.38
38452;BME280;24231;52.514;13.438;2023-04-23T08:01:21;100233.90;;;15.99;72.25
38452;BME280;24231;52.514;13.438;2023-04-23T08:03:48;100230.97;;;15.28;74.21
38452;BME280;24231;52.514;13.438;2023-04-23T08:06:16;100228.64;;;15.13;75.24
38452;BME280;24231;52.514;13.438;2023-04-23T08:08:43;100230.38;;;14.91;77.75
38452;BME280;24231;52.514;13.438;2023-04-23T08:11:11;100234.07;;;15.76;74.24
38452;BME280;24231;52.514;13.438;2023-04-23T08:13:38;100237.63;;;17.30;67.86
38452;BME280;24231;52.514;13.438;2023-04-23T08:16:05;100233.13;;;17.52;67.15
38452;BME280;24231;52.514;13.438;2023-04-23T08:18:32;100242.30;;;16.97;68.50
38452;BME280;24231;52.514;13.438;2023-04-23T08:21:00;100232.58;;;17.39;67.56
38452;BME280;24231;52.514;13.438;2023-04-23T08:23:28;100225.74;;;17.63;65.95
38452;BME280;24231;52.514;13.438;2023-04-23T08:25:55;100227.47;;;16.42;71.40
38452;BME280;24231;52.514;13.438;2023-04-23T08:28:23;100226.97;;;17.10;68.87
38452;BME280;24231;52.514;13.438;2023-04-23T08:30:50;100222.96;;;17.59;66.33
38452;BME280;24231;52.514;13.438;2023-04-23T08:33:17;100227.43;;;18.33;63.06
38452;BME280;24231;52.514;13.438;2023-04-23T08:35:45;100228.37;;;17.72;63.41
38452;BME280;24231;52.514;13.438;2023-04-23T08:38:12;100227.49;;;17.44;64.98
38452;BME280;24231;52.514;13.438;2023-04-23T08:40:41;100229.58;;;18.62;62.95
38452;BME280;24231;52.514;13.438;2023-04-23T08:43:15;100227.91;;;17.67;66.12
38452;BME280;24231;52.514;13.438;2023-04-23T08:45:42;100228.89;;;17.80;66.32
38452;BME280;24231;52.514;13.438;2023-04-23T08:48:13;100228.83;;;18.39;63.33
38452;BME280;24231;52.514;13.438;2023-04-23T08:50:50;100228.96;;;18.43;63.72
38452;BME280;24231;52.514;13.438;2023-04-23T08:53:18;100223.80;;;17.96;63.20
38452;BME280;24231;52.514;13.438;2023-04-23T08:55:48;100230.19;;;17.46;66.68
38452;BME280;24231;52.514;13.438;2023-04-23T08:58:16;100232.05;;;16.59;69.44
38452;BME280;24231;52.514;13.438;2023-04-23T09:00:43;100227.45;;;18.10;64.57
38452;BME280;24231;52.514;13.438;2023-04-23T09:03:10;100233.75;;;16.46;69.22
38452;BME280;24231;52.514;13.438;2023-04-23T09:05:38;100236.35;;;17.08;66.40
38452;BME280;24231;52.514;13.438;2023-04-23T09:08:06;100241.68;;;16.60;68.38
38452;BME280;24231;52.514;13.438;2023-04-23T09:10:35;100241.07;;;16.59;68.99
38452;BME280;24231;52.514;13.438;2023-04-23T09:13:03;100240.44;;;17.92;63.31
38452;BME280;24231;52.514;13.438;2023-04-23T09:15:30;100238.92;;;17.75;63.70
38452;BME280;24231;52.514;13.438;2023-04-23T09:17:58;100240.51;;;16.37;69.15
38452;BME280;24231;52.514;13.438;2023-04-23T09:20:26;100240.31;;;16.25;71.06
38452;BME280;24231;52.514;13.438;2023-04-23T09:22:53;100245.19;;;16.85;68.90
38452;BME280;24231;52.514;13.438;2023-04-23T09:25:22;100243.63;;;15.40;73.68
38452;BME280;24231;52.514;13.438;2023-04-23T09:27:50;100247.70;;;16.62;68.89
38452;BME280;24231;52.514;13.438;2023-04-23T09:30:19;100254.48;;;16.37;69.66
38452;BME280;24231;52.514;13.438;2023-04-23T09:32:46;100256.15;;;16.22;70.85
38452;BME280;24231;52.514;13.438;2023-04-23T09:35:15;100255.22;;;15.92;70.81
38452;BME280;24231;52.514;13.438;2023-04-23T09:37:44;100259.72;;;16.38;68.33
38452;BME280;24231;52.514;13.438;2023-04-23T09:40:13;100259.28;;;15.75;71.69
38452;BME280;24231;52.514;13.438;2023-04-23T09:42:40;100260.27;;;15.41;72.71
38452;BME280;24231;52.514;13.438;2023-04-23T09:45:12;100265.07;;;16.66;68.54
38452;BME280;24231;52.514;13.438;2023-04-23T09:47:40;100264.46;;;15.89;70.64
38452;BME280;24231;52.514;13.438;2023-04-23T09:50:08;100269.71;;;16.46;66.27
38452;BME280;24231;52.514;13.438;2023-04-23T09:53:02;100271.04;;;15.36;70.43
38452;BME280;24231;52.514;13.438;2023-04-23T09:55:31;100270.88;;;15.32;69.66
38452;BME280;24231;52.514;13.438;2023-04-23T09:57:58;100275.94;;;15.71;67.53
38452;BME280;24231;52.514;13.438;2023-04-23T10:00:31;100277.12;;;15.84;67.08
38452;BME280;24231;52.514;13.438;2023-04-23T10:02:59;100276.19;;;16.07;65.07
38452;BME280;24231;52.514;13.438;2023-04-23T10:05:28;100278.24;;;15.67;66.35
38452;BME280;24231;52.514;13.438;2023-04-23T10:07:56;100283.08;;;16.54;63.10
38452;BME280;24231;52.514;13.438;2023-04-23T10:10:29;100286.03;;;16.35;63.95
38452;BME280;24231;52.514;13.438;2023-04-23T10:12:57;100287.17;;;16.10;65.02
38452;BME280;24231;52.514;13.438;2023-04-23T10:15:26;100293.97;;;16.62;63.04
38452;BME280;24231;52.514;13.438;2023-04-23T10:17:53;100295.21;;;16.33;64.75
38452;BME280;24231;52.514;13.438;2023-04-23T10:20:21;100299.86;;;16.51;63.84
38452;BME280;24231;52.514;13.438;2023-04-23T10:22:49;100300.54;;;16.12;65.43
38452;BME280;24231;52.514;13.438;2023-04-23T10:25:19;100304.18;;;15.63;65.21
38452;BME280;24231;52.514;13.438;2023-04-23T10:27:48;100307.98;;;16.12;64.87
38452;BME280;24231;52.514;13.438;2023-04-23T10:30:15;100309.49;;;16.04;64.82
38452;BME280;24231;52.514;13.438;2023-04-23T10:32:43;100309.29;;;15.66;65.94
38452;BME280;24231;52.514;13.438;2023-04-23T10:35:10;100309.13;;;16.36;64.05
38452;BME280;24231;52.514;13.438;2023-04-23T10:37:38;100309.81;;;16.60;64.18
38452;BME280;24231;52.514;13.438;2023-04-23T10:40:08;100299.50;;;17.69;60.60
38452;BME280;24231;52.514;13.438;2023-04-23T10:42:37;100296.00;;;17.41;60.69
38452;BME280;24231;52.514;13.438;2023-04-23T10:45:12;100295.10;;;17.37;62.01
38452;BME280;24231;52.514;13.438;2023-04-23T10:47:41;100293.66;;;17.30;61.81
38452;BME280;24231;52.514;13.438;2023-04-23T10:50:25;100293.65;;;17.35;60.93
38452;BME280;24231;52.514;13.438;2023-04-23T10:52:53;100291.03;;;17.32;60.00
38452;BME280;24231;52.514;13.438;2023-04-23T10:55:23;100282.24;;;18.11;56.81
38452;BME280;24231;52.514;13.438;2023-04-23T10:57:56;100284.66;;;17.66;57.12
38452;BME280;24231;52.514;13.438;2023-04-23T11:00:24;100283.21;;;18.34;55.24
38452;BME280;24231;52.514;13.438;2023-04-23T11:02:51;100288.61;;;18.06;54.64
38452;BME280;24231;52.514;13.438;2023-04-23T11:05:19;100293.58;;;18.55;53.06
38452;BME280;24231;52.514;13.438;2023-04-23T11:08:02;100295.37;;;18.67;52.79
38452;BME280;24231;52.514;13.438;2023-04-23T11:10:31;100297.00;;;17.61;55.20
38452;BME280;24231;52.514;13.438;2023-04-23T11:13:20;100296.12;;;18.06;54.65
38452;BME280;24231;52.514;13.438;2023-04-23T11:15:48;100296.29;;;18.23;53.98
38452;BME280;24231;52.514;13.438;2023-04-23T11:18:15;100298.06;;;17.78;54.98
38452;BME280;24231;52.514;13.438;2023-04-23T11:20:42;100298.37;;;18.00;54.48
38452;BME280;24231;52.514;13.438;2023-04-23T11:23:28;100300.88;;;16.77;57.86
38452;BME280;24231;52.514;13.438;2023-04-23T11:25:56;100297.70;;;18.44;51.86
38452;BME280;24231;52.514;13.438;2023-04-23T11:28:23;100292.70;;;18.58;50.79
38452;BME280;24231;52.514;13.438;2023-04-23T11:30:52;100291.38;;;17.85;51.97
38452;BME280;24231;52.514;13.438;2023-04-23T11:33:20;100288.41;;;18.18;50.52
38452;BME280;24231;52.514;13.438;2023-04-23T11:35:48;100294.83;;;18.60;50.12
38452;BME280;24231;52.514;13.438;2023-04-23T11:38:15;100303.66;;;18.66;49.73
38452;BME280;24231;52.514;13.438;2023-04-23T11:40:45;100302.95;;;18.14;50.49
38452;BME280;24231;52.514;13.438;2023-04-23T11:43:17;100302.72;;;18.89;49.12
38452;BME280;24231;52.514;13.438;2023-04-23T11:45:44;100303.06;;;19.23;48.55
38452;BME280;24231;52.514;13.438;2023-04-23T11:48:11;100302.66;;;19.46;48.87
38452;BME280;24231;52.514;13.438;2023-04-23T11:50:40;100302.20;;;18.92;49.64
38452;BME280;24231;52.514;13.438;2023-04-23T11:53:09;100296.83;;;18.79;50.13
38452;BME280;24231;52.514;13.438;2023-04-23T11:55:37;100292.03;;;19.33;49.59
38452;BME280;24231;52.514;13.438;2023-04-23T11:58:05;100291.73;;;19.73;48.90
38452;BME280;24231;52.514;13.438;2023-04-23T12:00:32;100296.09;;;19.67;49.31
38452;BME280;24231;52.514;13.438;2023-04-23T12:03:01;100296.75;;;19.32;50.63
38452;BME280;24231;52.514;13.438;2023-04-23T12:05:31;100295.59;;;19.07;49.80
38452;BME280;24231;52.514;13.438;2023-04-23T12:08:06;100295.03;;;19.41;50.31
38452;BME280;24231;52.514;13.438;2023-04-23T12:10:41;100292.70;;;19.22;49.58
38452;BME280;24231;52.514;13.438;2023-04-23T12:13:13;100289.00;;;19.37;48.41
38452;BME280;24231;52.514;13.438;2023-04-23T12:15:45;100298.21;;;19.01;47.43
38452;BME280;24231;52.514;13.438;2023-04-23T12:18:13;100301.63;;;20.03;46.61
38452;BME280;24231;52.514;13.438;2023-04-23T12:20:40;100302.21;;;20.08;45.96
38452;BME280;24231;52.514;13.438;2023-04-23T12:23:07;100307.81;;;19.96;45.61
38452;BME280;24231;52.514;13.438;2023-04-23T12:25:35;100311.65;;;18.53;49.48
38452;BME280;24231;52.514;13.438;2023-04-23T12:28:03;100312.39;;;19.13;47.34
38452;BME280;24231;52.514;13.438;2023-04-23T12:30:34;100315.16;;;17.92;49.23
38452;BME280;24231;52.514;13.438;2023-04-23T12:33:10;100316.71;;;18.59;47.79
38452;BME280;24231;52.514;13.438;2023-04-23T12:35:38;100312.83;;;20.01;44.12
38452;BME280;24231;52.514;13.438;2023-04-23T12:38:06;100312.21;;;20.03;43.27
38452;BME280;24231;52.514;13.438;2023-04-23T12:40:33;100317.41;;;19.10;44.64
38452;BME280;24231;52.514;13.438;2023-04-23T12:43:00;100312.47;;;17.92;47.09
38452;BME280;24231;52.514;13.438;2023-04-23T12:45:36;100308.69;;;19.14;43.93